Time;durP1;ratioP1;P1;durP2;ratioP2;P2;SDS_P1;SDS_P2;PMS_P1;PMS_P2;Temp;Humidity;BMP_temperature;BMP_pressure;BME280_temperature;BME280_humidity;BME280_pressure;Samples;Min_cycle;Max_cycle;Signal;HPM_P1;HPM_P2
2022/10/13 00:00:27;;;;;;;27.03;13.33;;;7.90;99.90;;;;;;5030325;28;20030;-81
2022/10/13 00:02:53;;;;;;;22.67;14.00;;;7.90;99.90;;;;;;5029619;28;20033;-80
2022/10/13 00:05:19;;;;;;;16.47;12.13;;;7.80;99.90;;;;;;5030651;28;20045;-81
2022/10/13 00:07:44;;;;;;;25.83;12.60;;;7.80;99.90;;;;;;5032424;28;20096;-81
2022/10/13 00:10:10;;;;;;;23.70;12.33;;;7.80;99.90;;;;;;5017746;28;20068;-81
2022/10/13 00:12:37;;;;;;;21.37;12.30;;;7.80;99.90;;;;;;5031589;28;20045;-81
2022/10/13 00:15:05;;;;;;;25.83;13.10;;;7.80;99.90;;;;;;5030957;28;20444;-81
2022/10/13 00:17:31;;;;;;;23.60;11.73;;;7.70;99.90;;;;;;5021788;28;20022;-81
2022/10/13 00:19:57;;;;;;;23.47;11.67;;;7.70;99.90;;;;;;5026154;28;20359;-81
2022/10/13 00:22:23;;;;;;;21.90;12.50;;;7.70;99.90;;;;;;5033043;28;20140;-81
2022/10/13 00:24:52;;;;;;;21.67;12.30;;;7.70;99.90;;;;;;5034461;28;20048;-81
2022/10/13 00:27:18;;;;;;;19.30;11.97;;;7.70;99.90;;;;;;5020300;28;20060;-81
2022/10/13 00:29:44;;;;;;;20.83;13.43;;;7.60;99.90;;;;;;5034096;28;20069;-81
2022/10/13 00:32:09;;;;;;;18.40;12.00;;;7.60;99.90;;;;;;5027581;28;20049;-81
2022/10/13 00:34:38;;;;;;;22.77;12.70;;;7.60;99.90;;;;;;5034006;28;20037;-81
2022/10/13 00:37:04;;;;;;;22.23;13.20;;;7.60;99.90;;;;;;5033675;28;20060;-81
2022/10/13 00:39:30;;;;;;;18.80;12.80;;;7.60;99.90;;;;;;5033376;28;20060;-81
2022/10/13 00:41:59;;;;;;;17.87;12.60;;;7.60;99.90;;;;;;5020455;28;20112;-81
2022/10/13 00:44:53;;;;;;;18.47;11.03;;;7.50;99.90;;;;;;5017634;28;20155;-81
2022/10/13 00:47:19;;;;;;;16.17;10.53;;;7.50;99.90;;;;;;5013957;28;20109;-81
2022/10/13 00:49:45;;;;;;;16.97;10.17;;;7.50;99.90;;;;;;5013737;28;20109;-81
2022/10/13 00:52:13;;;;;;;15.97;10.60;;;7.40;99.90;;;;;;5029021;28;20104;-81
2022/10/13 00:54:38;;;;;;;19.70;10.67;;;7.40;99.90;;;;;;5033363;28;20033;-81
2022/10/13 00:57:06;;;;;;;15.17;8.93;;;7.30;99.90;;;;;;5033604;28;20029;-81
2022/10/13 00:59:33;;;;;;;14.30;9.63;;;7.30;99.90;;;;;;5019282;28;20379;-81
2022/10/13 01:02:00;;;;;;;15.60;9.43;;;7.20;99.90;;;;;;5033097;28;20075;-81
2022/10/13 01:04:30;;;;;;;12.83;9.50;;;7.20;99.90;;;;;;5033316;28;20017;-81
2022/10/13 01:06:57;;;;;;;18.00;10.97;;;7.20;99.90;;;;;;5033509;28;20239;-81
2022/10/13 01:09:22;;;;;;;15.10;10.17;;;7.20;99.90;;;;;;5033591;28;20030;-81
2022/10/13 01:11:54;;;;;;;16.87;10.67;;;7.20;99.90;;;;;;5033496;28;20087;-81
2022/10/13 01:14:32;;;;;;;22.67;12.73;;;7.20;99.90;;;;;;5032488;28;20529;-81
2022/10/13 01:16:58;;;;;;;18.47;12.47;;;7.20;99.90;;;;;;5013354;28;20141;-81
2022/10/13 01:19:51;;;;;;;18.77;12.33;;;7.20;99.90;;;;;;5027972;28;20510;-81
2022/10/13 01:22:31;;;;;;;17.70;12.63;;;7.20;99.90;;;;;;5031574;28;20021;-81
2022/10/13 01:25:05;;;;;;;20.63;13.27;;;7.20;99.90;;;;;;5033007;28;20021;-81
2022/10/13 01:27:58;;;;;;;22.77;13.37;;;7.20;99.90;;;;;;5033093;28;20393;-81
2022/10/13 01:30:23;;;;;;;18.17;12.90;;;7.20;99.90;;;;;;5018935;28;20063;-81
2022/10/13 01:33:11;;;;;;;19.63;12.90;;;7.20;99.90;;;;;;5013093;28;20030;-81
2022/10/13 01:35:54;;;;;;;22.57;12.47;;;7.20;99.90;;;;;;5021515;28;20101;-81
2022/10/13 01:38:38;;;;;;;19.90;13.10;;;7.20;99.90;;;;;;5033070;28;20041;-80
2022/10/13 01:41:24;;;;;;;17.27;12.47;;;7.20;99.90;;;;;;5032591;28;20043;-77
2022/10/13 01:44:01;;;;;;;18.57;12.63;;;7.20;99.90;;;;;;5032059;28;20025;-76
2022/10/13 01:46:33;;;;;;;16.47;12.40;;;7.20;99.90;;;;;;5032158;28;20084;-77
2022/10/13 01:49:03;;;;;;;18.83;12.73;;;7.20;99.90;;;;;;5027441;28;20026;-77
2022/10/13 01:51:31;;;;;;;19.53;12.73;;;7.20;99.90;;;;;;5023872;28;20033;-76
2022/10/13 01:53:56;;;;;;;22.57;12.80;;;7.30;99.90;;;;;;5031964;28;20028;-77
2022/10/13 01:56:22;;;;;;;22.80;13.97;;;7.20;99.90;;;;;;5032220;28;20022;-77
2022/10/13 01:58:50;;;;;;;20.23;13.70;;;7.30;99.90;;;;;;5031843;28;20037;-77
2022/10/13 02:01:38;;;;;;;36.10;15.37;;;7.30;99.90;;;;;;5032278;28;20421;-76
2022/10/13 02:04:27;;;;;;;25.20;15.17;;;7.30;99.90;;;;;;5031666;28;20022;-77
2022/10/13 02:07:11;;;;;;;27.13;16.20;;;7.30;99.90;;;;;;5031856;28;20466;-77
2022/10/13 02:10:00;;;;;;;66.23;15.43;;;7.30;99.90;;;;;;5031837;28;20056;-77
2022/10/13 02:12:48;;;;;;;93.17;15.30;;;7.40;99.90;;;;;;5031978;28;20517;-76
2022/10/13 02:15:18;;;;;;;144.80;16.23;;;7.40;99.90;;;;;;5031646;28;20069;-77
2022/10/13 02:17:44;;;;;;;20.07;14.07;;;7.40;99.90;;;;;;5031496;28;20017;-76
2022/10/13 02:20:10;;;;;;;51.33;16.73;;;7.40;99.90;;;;;;5031488;28;20537;-77
2022/10/13 02:22:40;;;;;;;35.33;15.07;;;7.40;99.90;;;;;;5028568;28;20087;-77
2022/10/13 02:25:07;;;;;;;22.87;13.87;;;7.40;99.90;;;;;;5026785;28;20029;-77
2022/10/13 02:27:33;;;;;;;19.47;14.77;;;7.40;99.90;;;;;;5031360;28;20049;-77
2022/10/13 02:29:58;;;;;;;37.20;15.63;;;7.50;99.90;;;;;;5031203;28;20049;-77
2022/10/13 02:32:24;;;;;;;20.10;14.33;;;7.50;99.90;;;;;;5023447;28;20478;-76
2022/10/13 02:34:50;;;;;;;22.80;14.40;;;7.50;99.90;;;;;;5022890;28;20079;-76
2022/10/13 02:37:16;;;;;;;23.57;14.00;;;7.50;99.90;;;;;;5031428;28;20073;-76
2022/10/13 02:39:42;;;;;;;25.27;14.03;;;7.50;99.90;;;;;;5031243;28;20021;-76
2022/10/13 02:42:07;;;;;;;20.57;13.17;;;7.60;99.90;;;;;;5030966;28;20027;-76
2022/10/13 02:44:33;;;;;;;16.83;13.40;;;7.60;99.90;;;;;;5030418;28;20091;-76
2022/10/13 02:46:59;;;;;;;15.97;13.47;;;7.60;99.90;;;;;;5031065;28;20069;-76
2022/10/13 02:49:24;;;;;;;29.00;14.17;;;7.60;99.90;;;;;;5031175;28;20025;-76
2022/10/13 02:51:50;;;;;;;17.10;13.13;;;7.60;99.90;;;;;;5031035;28;20025;-76
2022/10/13 02:54:16;;;;;;;26.20;13.77;;;7.70;99.90;;;;;;5030742;28;20041;-76
2022/10/13 02:56:41;;;;;;;21.40;13.10;;;7.70;99.90;;;;;;5030896;28;20055;-76
2022/10/13 02:59:07;;;;;;;27.83;12.93;;;7.70;99.90;;;;;;5030752;28;20032;-76
2022/10/13 03:01:32;;;;;;;16.83;12.63;;;7.80;99.90;;;;;;5030775;28;20166;-76
2022/10/13 03:03:58;;;;;;;17.30;12.57;;;7.80;99.90;;;;;;5030845;28;20033;-76
2022/10/13 03:06:24;;;;;;;20.67;12.77;;;7.80;99.90;;;;;;5030792;28;20025;-76
2022/10/13 03:08:50;;;;;;;18.73;13.40;;;7.80;99.90;;;;;;5030670;28;20025;-76
2022/10/13 03:11:15;;;;;;;27.67;12.63;;;7.80;99.90;;;;;;5030817;28;20110;-76
2022/10/13 03:13:41;;;;;;;31.60;14.43;;;7.80;99.90;;;;;;5030899;28;20025;-76
2022/10/13 03:16:07;;;;;;;16.97;12.97;;;7.80;99.90;;;;;;5030826;28;20057;-76
2022/10/13 03:18:33;;;;;;;16.47;12.70;;;7.80;99.90;;;;;;5030542;28;20033;-76
2022/10/13 03:21:02;;;;;;;18.03;13.40;;;7.80;99.90;;;;;;5030399;28;20039;-76
2022/10/13 03:23:28;;;;;;;21.63;12.60;;;7.80;99.90;;;;;;5030649;28;20029;-76
2022/10/13 03:25:55;;;;;;;20.93;13.23;;;7.80;99.90;;;;;;5030569;28;20036;-76
2022/10/13 03:28:21;;;;;;;15.50;13.00;;;7.80;99.90;;;;;;5030597;28;20022;-76
2022/10/13 03:30:47;;;;;;;21.27;12.83;;;7.80;99.90;;;;;;5028661;28;20693;-76
2022/10/13 03:33:12;;;;;;;19.67;13.33;;;7.80;99.90;;;;;;5019893;28;20044;-76
2022/10/13 03:35:38;;;;;;;17.93;13.43;;;7.80;99.90;;;;;;5030739;28;20056;-76
2022/10/13 03:38:03;;;;;;;21.63;13.40;;;7.80;99.90;;;;;;5030504;28;20025;-76
2022/10/13 03:40:29;;;;;;;20.87;14.60;;;7.80;99.90;;;;;;5030679;28;20043;-76
2022/10/13 03:42:54;;;;;;;17.47;13.27;;;7.90;99.90;;;;;;5030487;28;20029;-76
2022/10/13 03:45:20;;;;;;;17.83;14.43;;;7.90;99.90;;;;;;5030383;28;20025;-76
2022/10/13 03:47:46;;;;;;;20.17;14.30;;;7.90;99.90;;;;;;5030506;28;20129;-76
2022/10/13 03:50:11;;;;;;;31.07;14.17;;;7.90;99.90;;;;;;5016053;28;20490;-76
2022/10/13 03:52:37;;;;;;;18.57;14.40;;;7.90;99.90;;;;;;5030282;28;20069;-76
2022/10/13 03:55:03;;;;;;;31.30;16.83;;;8.00;99.90;;;;;;5030554;28;20104;-76
2022/10/13 03:57:29;;;;;;;24.00;15.67;;;8.00;99.90;;;;;;5019356;28;20497;-76
2022/10/13 03:59:56;;;;;;;31.20;15.53;;;8.00;99.90;;;;;;5034232;28;20084;-76
2022/10/13 04:02:22;;;;;;;33.57;16.03;;;8.00;99.90;;;;;;5034160;28;20025;-76
2022/10/13 04:04:47;;;;;;;24.80;16.47;;;8.10;99.90;;;;;;5034074;28;20060;-76
2022/10/13 04:07:13;;;;;;;24.43;16.50;;;8.10;99.90;;;;;;5034328;28;20052;-76
2022/10/13 04:09:39;;;;;;;23.10;14.73;;;8.10;99.90;;;;;;5034320;28;20052;-76
2022/10/13 04:12:04;;;;;;;21.20;14.37;;;8.20;99.90;;;;;;5033941;28;20034;-76
2022/10/13 04:14:30;;;;;;;19.83;14.93;;;8.20;99.90;;;;;;5033861;28;20104;-76
2022/10/13 04:16:56;;;;;;;21.67;14.33;;;8.20;99.90;;;;;;5033478;28;20398;-76
2022/10/13 04:19:21;;;;;;;20.87;14.10;;;8.20;99.90;;;;;;5033849;28;20032;-76
2022/10/13 04:21:47;;;;;;;21.97;14.37;;;8.20;99.90;;;;;;5034238;28;20350;-78
2022/10/13 04:24:13;;;;;;;19.80;14.73;;;8.30;99.90;;;;;;5034203;28;20032;-78
2022/10/13 04:26:39;;;;;;;19.40;14.30;;;8.30;99.90;;;;;;5027043;28;20026;-78
2022/10/13 04:29:07;;;;;;;21.07;15.17;;;8.30;99.90;;;;;;5027949;28;20028;-78
2022/10/13 04:31:33;;;;;;;23.67;15.10;;;8.40;99.90;;;;;;5028751;28;20017;-78
2022/10/13 04:33:59;;;;;;;20.93;14.87;;;8.40;99.90;;;;;;5026169;28;20024;-78
2022/10/13 04:36:25;;;;;;;29.83;16.60;;;8.40;99.90;;;;;;5034100;28;20108;-78
2022/10/13 04:38:52;;;;;;;28.67;16.97;;;8.50;99.90;;;;;;5034272;28;20109;-79
2022/10/13 04:41:18;;;;;;;26.47;16.43;;;8.50;99.90;;;;;;5032857;28;20366;-78
2022/10/13 04:43:49;;;;;;;23.53;16.80;;;8.50;99.90;;;;;;5034000;28;20076;-78
2022/10/13 04:46:20;;;;;;;23.17;16.13;;;8.60;99.90;;;;;;5033845;28;20028;-78
2022/10/13 04:48:46;;;;;;;25.30;16.87;;;8.60;99.90;;;;;;5027511;28;20026;-78
2022/10/13 04:51:23;;;;;;;25.10;16.77;;;8.70;99.90;;;;;;5023572;28;20399;-78
2022/10/13 04:53:54;;;;;;;29.90;17.53;;;8.70;99.90;;;;;;5026071;28;20037;-78
2022/10/13 04:56:20;;;;;;;26.63;17.07;;;8.70;99.90;;;;;;5027316;28;20034;-78
2022/10/13 04:58:46;;;;;;;25.90;17.57;;;8.70;99.90;;;;;;5020221;28;20084;-78
2022/10/13 05:01:15;;;;;;;29.10;17.93;;;8.80;99.90;;;;;;5024400;28;20079;-78
2022/10/13 05:03:41;;;;;;;29.97;19.03;;;8.80;99.90;;;;;;5027571;28;20033;-78
2022/10/13 05:06:16;;;;;;;27.40;18.77;;;8.80;99.90;;;;;;5034009;28;20037;-78
2022/10/13 05:08:42;;;;;;;27.63;19.27;;;8.90;99.90;;;;;;5019142;28;20022;-78
2022/10/13 05:11:08;;;;;;;25.60;17.30;;;8.90;99.90;;;;;;5025007;28;20022;-78
2022/10/13 05:13:35;;;;;;;28.07;18.57;;;8.90;99.90;;;;;;5020545;28;20025;-78
2022/10/13 05:16:09;;;;;;;30.63;18.33;;;9.00;99.90;;;;;;5020003;28;20498;-78
2022/10/13 05:18:36;;;;;;;28.65;19.83;;;9.00;99.90;;;;;;5030881;28;20022;-75
2022/10/13 05:21:10;;;;;;;32.80;19.87;;;9.00;99.90;;;;;;5027878;28;20030;-75
2022/10/13 05:23:37;;;;;;;31.50;20.53;;;9.00;99.90;;;;;;5027882;28;20103;-76
2022/10/13 05:26:06;;;;;;;28.93;20.07;;;9.10;99.90;;;;;;5029363;28;20204;-75
2022/10/13 05:28:32;;;;;;;30.80;18.93;;;9.10;99.90;;;;;;5029322;28;20037;-76
2022/10/13 05:31:11;;;;;;;30.70;19.10;;;9.10;99.90;;;;;;5028332;28;20029;-76
2022/10/13 05:33:37;;;;;;;29.40;20.03;;;9.10;99.90;;;;;;5035292;28;20472;-75
2022/10/13 05:36:05;;;;;;;32.83;20.07;;;9.20;99.90;;;;;;5039001;28;20028;-76
2022/10/13 05:38:30;;;;;;;31.67;19.17;;;9.20;99.90;;;;;;5015149;28;20194;-76
2022/10/13 05:41:01;;;;;;;29.07;19.40;;;9.20;99.90;;;;;;5029126;28;20558;-79
2022/10/13 05:43:27;;;;;;;32.20;18.97;;;9.20;99.90;;;;;;5026304;28;20109;-79
2022/10/13 05:45:52;;;;;;;34.60;19.40;;;9.20;99.90;;;;;;5028654;28;20351;-79
2022/10/13 05:48:18;;;;;;;32.20;19.10;;;9.20;99.90;;;;;;5023977;28;20029;-79
2022/10/13 05:50:43;;;;;;;28.00;19.03;;;9.30;99.90;;;;;;5016943;28;20374;-79
2022/10/13 05:53:09;;;;;;;29.67;18.60;;;9.30;99.90;;;;;;5034874;28;20438;-79
2022/10/13 05:55:34;;;;;;;29.30;18.53;;;9.30;99.90;;;;;;5040320;28;20021;-79
2022/10/13 05:58:01;;;;;;;30.90;18.37;;;9.30;99.90;;;;;;5033968;28;20128;-79
2022/10/13 06:00:27;;;;;;;28.63;17.97;;;9.40;99.90;;;;;;5034613;28;20035;-79
2022/10/13 06:03:31;;;;;;;28.83;18.27;;;9.40;99.90;;;;;;5034710;28;20029;-79
2022/10/13 06:05:56;;;;;;;29.33;19.87;;;9.40;99.90;;;;;;5034143;28;20120;-79
2022/10/13 06:08:22;;;;;;;30.10;20.33;;;9.50;99.90;;;;;;5033829;28;20092;-75
2022/10/13 06:10:48;;;;;;;33.70;21.83;;;9.50;99.90;;;;;;5033818;28;20371;-79
2022/10/13 06:13:13;;;;;;;32.33;20.83;;;9.60;99.90;;;;;;5034238;28;20032;-79
2022/10/13 06:15:39;;;;;;;30.83;21.30;;;9.60;99.90;;;;;;5034218;28;20053;-79
2022/10/13 06:18:08;;;;;;;32.27;21.47;;;9.70;99.90;;;;;;5034498;28;20084;-79
2022/10/13 06:20:34;;;;;;;30.67;21.10;;;9.70;99.90;;;;;;5036360;28;20477;-79
2022/10/13 06:23:00;;;;;;;31.00;21.40;;;9.80;99.90;;;;;;5043280;28;20017;-79
2022/10/13 06:25:26;;;;;;;32.93;21.63;;;9.80;99.90;;;;;;5043559;28;20100;-79
2022/10/13 06:27:51;;;;;;;39.23;22.33;;;9.90;99.90;;;;;;5047718;28;20025;-76
2022/10/13 06:30:18;;;;;;;33.90;22.47;;;9.90;99.90;;;;;;5038684;28;20525;-76
2022/10/13 06:32:43;;;;;;;36.03;23.40;;;10.00;99.90;;;;;;5036155;28;20116;-76
2022/10/13 06:35:09;;;;;;;33.07;22.27;;;10.00;99.90;;;;;;5038611;28;20044;-79
2022/10/13 06:37:34;;;;;;;39.37;23.83;;;10.10;99.90;;;;;;5039414;28;20037;-76
2022/10/13 06:40:00;;;;;;;38.00;23.42;;;10.10;99.90;;;;;;5038640;28;20033;-80
2022/10/13 06:42:25;;;;;;;38.90;24.60;;;10.20;99.90;;;;;;5038533;28;20037;-80
2022/10/13 06:44:51;;;;;;;39.20;23.87;;;10.20;99.90;;;;;;5036540;28;20135;-79
2022/10/13 06:47:16;;;;;;;40.30;24.17;;;10.30;99.90;;;;;;5030278;28;20025;-79
2022/10/13 06:49:42;;;;;;;38.50;25.33;;;10.30;99.90;;;;;;5018149;28;20105;-79
2022/10/13 06:52:08;;;;;;;45.78;26.58;;;10.30;99.90;;;;;;5027723;28;20049;-77
2022/10/13 06:54:34;;;;;;;40.55;26.10;;;10.40;99.90;;;;;;5031559;28;20021;-77
2022/10/13 06:56:59;;;;;;;40.60;26.42;;;10.50;99.90;;;;;;5018498;28;20034;-77
2022/10/13 06:59:26;;;;;;;44.53;27.20;;;10.50;99.90;;;;;;5031860;28;20033;-77
2022/10/13 07:01:52;;;;;;;44.75;26.20;;;10.50;99.90;;;;;;5031760;28;20382;-77
2022/10/13 07:04:18;;;;;;;45.28;27.15;;;10.60;99.90;;;;;;5016603;28;20029;-77
2022/10/13 07:06:44;;;;;;;45.17;28.05;;;10.70;99.90;;;;;;5031446;28;20037;-77
2022/10/13 07:09:09;;;;;;;54.00;27.80;;;10.70;99.90;;;;;;5032115;28;20041;-80
2022/10/13 07:11:35;;;;;;;48.63;28.52;;;10.80;99.90;;;;;;5032673;28;20018;-80
2022/10/13 07:14:01;;;;;;;49.05;28.45;;;10.80;99.90;;;;;;5032717;28;20495;-80
2022/10/13 07:16:27;;;;;;;46.03;27.27;;;10.90;99.90;;;;;;5032897;28;20045;-87
2022/10/13 07:18:52;;;;;;;49.60;28.67;;;10.90;99.90;;;;;;5033664;28;20060;-80
2022/10/13 07:21:18;;;;;;;47.30;27.10;;;11.00;99.90;;;;;;5026337;28;20017;-80
2022/10/13 07:23:43;;;;;;;48.40;27.08;;;11.00;99.90;;;;;;5029571;28;20036;-80
2022/10/13 07:26:12;;;;;;;41.50;26.40;;;11.10;99.90;;;;;;5030461;28;20034;-79
2022/10/13 07:28:38;;;;;;;38.33;25.30;;;11.10;99.90;;;;;;5046974;28;20032;-79
2022/10/13 07:31:13;;;;;;;41.65;25.35;;;11.20;99.90;;;;;;5022121;28;20041;-79
2022/10/13 07:33:42;;;;;;;42.60;25.25;;;11.20;99.90;;;;;;5028483;28;20029;-79
2022/10/13 07:36:08;;;;;;;41.05;26.50;;;11.20;99.90;;;;;;5022694;28;20030;-80
2022/10/13 07:38:34;;;;;;;43.28;27.42;;;11.30;99.90;;;;;;5016526;28;20061;-80
2022/10/13 07:41:01;;;;;;;38.08;25.73;;;11.30;99.90;;;;;;5041699;28;20052;-79
2022/10/13 07:43:27;;;;;;;38.03;22.98;;;11.40;99.90;;;;;;5031710;28;20026;-80
2022/10/13 07:45:52;;;;;;;41.58;24.63;;;11.40;99.90;;;;;;5027120;28;20378;-80
2022/10/13 07:48:21;;;;;;;33.35;21.40;;;11.50;99.90;;;;;;5032315;28;20033;-76
2022/10/13 07:50:47;;;;;;;33.55;22.48;;;11.60;99.90;;;;;;5030102;28;20041;-76
2022/10/13 07:53:12;;;;;;;37.40;23.08;;;11.60;99.90;;;;;;5030612;28;20565;-76
2022/10/13 07:55:40;;;;;;;39.45;23.30;;;11.70;99.90;;;;;;5030319;28;20474;-76
2022/10/13 07:58:05;;;;;;;36.28;23.40;;;11.70;99.90;;;;;;5029845;28;20091;-76
2022/10/13 08:00:31;;;;;;;39.10;21.88;;;11.80;99.90;;;;;;5029815;28;20474;-77
2022/10/13 08:02:56;;;;;;;33.90;21.73;;;11.80;99.90;;;;;;5029290;28;20108;-77
2022/10/13 08:05:22;;;;;;;39.17;21.92;;;11.90;99.90;;;;;;5018484;28;20021;-77
2022/10/13 08:07:48;;;;;;;33.78;20.73;;;11.90;99.90;;;;;;5032592;28;20025;-77
2022/10/13 08:10:14;;;;;;;34.40;21.10;;;12.00;99.90;;;;;;5032136;28;20091;-77
2022/10/13 08:12:40;;;;;;;35.50;20.35;;;12.00;99.90;;;;;;5032021;28;20792;-77
2022/10/13 08:15:07;;;;;;;31.80;19.52;;;12.10;99.90;;;;;;5031664;28;20060;-77
2022/10/13 08:17:33;;;;;;;31.58;19.10;;;12.20;99.90;;;;;;5023996;28;20382;-77
2022/10/13 08:19:58;;;;;;;28.45;19.20;;;12.20;99.90;;;;;;5024364;28;20041;-77
2022/10/13 08:22:24;;;;;;;30.17;19.48;;;12.20;99.90;;;;;;5023896;28;20311;-77
2022/10/13 08:24:50;;;;;;;25.95;18.48;;;12.30;99.90;;;;;;5009819;28;20029;-76
2022/10/13 08:27:20;;;;;;;30.92;18.60;;;12.40;99.90;;;;;;5017810;28;20025;-76
2022/10/13 08:29:46;;;;;;;31.42;18.13;;;12.40;99.90;;;;;;5029214;28;20032;-76
2022/10/13 08:32:11;;;;;;;32.70;19.15;;;12.40;99.90;;;;;;5027477;28;20130;-76
2022/10/13 08:34:37;;;;;;;30.35;17.63;;;12.50;99.90;;;;;;5022949;28;20025;-76
2022/10/13 08:37:03;;;;;;;25.48;16.70;;;12.60;99.90;;;;;;5029275;28;20026;-76
2022/10/13 08:39:29;;;;;;;31.50;16.75;;;12.60;99.90;;;;;;5029078;28;20082;-76
2022/10/13 08:41:56;;;;;;;28.05;17.15;;;12.70;99.90;;;;;;5029118;28;20033;-76
2022/10/13 08:44:24;;;;;;;28.73;17.15;;;12.70;99.90;;;;;;5032294;28;20025;-76
2022/10/13 08:47:00;;;;;;;23.75;16.40;;;12.80;99.90;;;;;;5032484;28;20025;-76
2022/10/13 08:49:26;;;;;;;24.23;16.23;;;12.90;99.90;;;;;;5022569;28;20024;-76
2022/10/13 08:51:52;;;;;;;23.77;15.50;;;13.10;99.90;;;;;;5030038;28;20030;-76
2022/10/13 08:54:23;;;;;;;23.23;15.13;;;13.20;99.90;;;;;;5032584;28;20279;-76
2022/10/13 08:56:49;;;;;;;22.08;14.73;;;13.30;99.90;;;;;;5025250;28;20029;-76
2022/10/13 08:59:17;;;;;;;28.25;15.80;;;13.40;99.90;;;;;;5032393;28;20427;-77
2022/10/13 09:01:48;;;;;;;24.42;14.32;;;13.40;99.90;;;;;;5031170;28;20112;-76
2022/10/13 09:04:26;;;;;;;22.90;14.30;;;13.50;99.90;;;;;;5026394;28;20060;-76
2022/10/13 09:07:05;;;;;;;24.98;13.52;;;13.50;99.90;;;;;;5026994;28;20034;-76
2022/10/13 09:09:31;;;;;;;25.23;13.80;;;13.50;99.90;;;;;;5023851;28;20033;-76
2022/10/13 09:11:58;;;;;;;21.88;13.55;;;13.60;99.90;;;;;;5022991;28;20037;-77
2022/10/13 09:14:30;;;;;;;20.88;12.75;;;13.70;99.90;;;;;;5026588;28;20061;-76
2022/10/13 09:17:11;;;;;;;18.15;12.50;;;13.70;99.90;;;;;;5026668;28;20492;-77
2022/10/13 09:19:37;;;;;;;23.35;12.55;;;13.80;99.90;;;;;;5024389;28;20362;-77
2022/10/13 09:22:23;;;;;;;23.30;13.05;;;13.90;99.90;;;;;;5021606;28;20040;-77
2022/10/13 09:25:07;;;;;;;;;;;14.00;99.90;;;;;;5024364;28;20553;-77
2022/10/13 09:27:53;;;;;;;22.15;11.85;;;14.10;99.90;;;;;;5026268;28;19931;-77
2022/10/13 09:30:24;;;;;;;18.15;11.38;;;14.20;99.90;;;;;;5023959;28;20064;-76
2022/10/13 09:32:49;;;;;;;15.55;11.63;;;14.20;99.90;;;;;;5024771;28;20386;-76
2022/10/13 09:35:21;;;;;;;18.17;11.38;;;14.30;99.90;;;;;;5025064;28;20022;-76
2022/10/13 09:38:12;;;;;;;21.95;12.23;;;14.20;99.90;;;;;;5024432;28;20112;-77
2022/10/13 09:40:39;;;;;;;21.05;11.50;;;14.20;99.90;;;;;;5025179;28;20041;-77
2022/10/13 09:43:30;;;;;;;19.23;10.52;;;14.30;99.90;;;;;;5024670;28;20037;-77
2022/10/13 09:45:58;;;;;;;20.60;10.80;;;14.30;99.90;;;;;;5024408;28;20055;-77
2022/10/13 09:48:27;;;;;;;18.65;10.80;;;14.40;99.90;;;;;;5025202;28;20111;-77
2022/10/13 09:50:55;;;;;;;19.80;10.98;;;14.50;99.90;;;;;;5026634;28;20071;-77
2022/10/13 09:53:20;;;;;;;18.80;9.88;;;14.60;99.90;;;;;;5020864;28;20108;-77
2022/10/13 09:55:48;;;;;;;21.42;10.65;;;14.70;99.90;;;;;;5019127;28;20132;-76
2022/10/13 09:58:20;;;;;;;22.45;10.13;;;14.80;99.90;;;;;;5015030;28;20018;-77
2022/10/13 10:00:50;;;;;;;18.35;9.77;;;14.90;99.90;;;;;;5014185;28;20026;-77
2022/10/13 10:03:23;;;;;;;19.25;10.40;;;15.00;99.90;;;;;;5020170;28;20497;-77
2022/10/13 10:05:55;;;;;;;18.73;10.57;;;15.10;99.90;;;;;;5026219;28;20018;-77
2022/10/13 10:08:40;;;;;;;16.10;9.90;;;15.10;99.90;;;;;;5011458;28;20076;-77
2022/10/13 10:11:32;;;;;;;21.20;11.20;;;15.20;99.90;;;;;;5012982;28;20029;-76
2022/10/13 10:14:19;;;;;;;18.98;10.25;;;15.20;99.90;;;;;;5010677;28;20052;-77
2022/10/13 10:17:12;;;;;;;18.75;11.00;;;15.20;99.90;;;;;;4978090;28;20060;-77
2022/10/13 10:20:07;;;;;;;16.63;10.32;;;15.40;99.90;;;;;;4994089;28;20038;-78
2022/10/13 10:22:39;;;;;;;15.83;9.97;;;15.50;99.90;;;;;;4987738;28;20118;-78
2022/10/13 10:25:14;;;;;;;16.15;9.80;;;15.50;99.90;;;;;;4973059;28;20258;-78
2022/10/13 10:27:59;;;;;;;19.70;10.63;;;15.50;99.90;;;;;;4972847;28;20023;-78
2022/10/13 10:30:28;;;;;;;16.95;10.25;;;15.50;99.90;;;;;;4981122;28;20072;-78
2022/10/13 10:33:06;;;;;;;17.25;10.32;;;15.60;99.90;;;;;;4990026;28;20034;-78
2022/10/13 10:35:43;;;;;;;22.33;11.35;;;15.70;99.90;;;;;;4982482;28;20130;-74
2022/10/13 10:38:24;;;;;;;18.63;11.18;;;15.70;99.90;;;;;;4976177;28;20696;-79
2022/10/13 10:41:05;;;;;;;19.90;10.85;;;15.60;99.90;;;;;;4990664;28;20045;-79
2022/10/13 10:43:58;;;;;;;21.02;11.18;;;15.60;99.90;;;;;;4991796;28;20101;-79
2022/10/13 10:46:28;;;;;;;16.65;9.82;;;15.60;99.90;;;;;;4991384;28;20026;-79
2022/10/13 10:49:01;;;;;;;20.65;10.07;;;15.60;99.90;;;;;;4986748;28;20094;-78
2022/10/13 10:51:35;;;;;;;16.42;10.02;;;15.80;99.90;;;;;;4977628;28;20113;-79
2022/10/13 10:54:48;;;;;;;15.53;9.80;;;15.80;99.90;;;;;;4984795;28;20030;-77
2022/10/13 10:57:43;;;;;;;18.40;10.65;;;15.80;99.90;;;;;;5005409;28;20030;-83
2022/10/13 11:00:16;;;;;;;18.40;10.32;;;15.80;99.90;;;;;;5006531;28;20026;-82
2022/10/13 11:03:15;;;;;;;16.63;10.48;;;15.80;99.90;;;;;;4992510;28;21042;-82
2022/10/13 11:05:56;;;;;;;17.42;9.63;;;15.90;99.90;;;;;;4987614;28;20014;-82
2022/10/13 11:08:45;;;;;;;17.17;10.07;;;15.90;99.90;;;;;;4988888;28;20384;-82
2022/10/13 11:11:24;;;;;;;14.85;8.68;;;16.20;99.90;;;;;;4988217;28;20026;-83
2022/10/13 11:13:57;;;;;;;18.08;9.18;;;16.40;99.90;;;;;;4989641;28;20120;-83
2022/10/13 11:16:51;;;;;;;17.75;9.55;;;16.60;99.90;;;;;;5018669;28;20084;-82
2022/10/13 11:19:33;;;;;;;16.10;8.90;;;16.70;99.90;;;;;;5027310;28;20117;-83
2022/10/13 11:21:58;;;;;;;16.23;8.63;;;16.90;99.90;;;;;;5026369;28;20029;-83
2022/10/13 11:24:33;;;;;;;17.08;9.02;;;17.20;99.90;;;;;;5029151;28;20044;-83
2022/10/13 11:27:10;;;;;;;17.98;8.98;;;17.20;99.90;;;;;;5028527;28;20022;-83
2022/10/13 11:29:51;;;;;;;13.38;8.82;;;17.20;99.90;;;;;;5025600;28;20370;-82
2022/10/13 11:32:39;;;;;;;17.65;8.93;;;17.40;99.90;;;;;;5025908;28;20056;-83
2022/10/13 11:35:05;;;;;;;19.30;8.52;;;17.60;99.90;;;;;;5030069;28;20724;-83
2022/10/13 11:37:44;;;;;;;14.52;8.30;;;17.60;99.90;;;;;;5027422;28;20039;-82
2022/10/13 11:40:15;;;;;;;16.90;8.63;;;17.80;99.90;;;;;;5026681;28;20033;-83
2022/10/13 11:43:05;;;;;;;16.27;9.90;;;17.90;99.90;;;;;;5027870;28;20498;-83
2022/10/13 11:45:40;;;;;;;15.02;8.32;;;17.90;99.90;;;;;;5027081;28;20025;-82
2022/10/13 11:48:44;;;;;;;18.92;9.25;;;17.70;99.90;;;;;;5026399;28;20072;-83
2022/10/13 11:51:34;;;;;;;14.38;8.68;;;17.60;99.90;;;;;;5026313;28;20056;-83
2022/10/13 11:54:09;;;;;;;15.00;8.88;;;17.50;99.90;;;;;;5028502;28;20075;-83
2022/10/13 11:56:47;;;;;;;13.40;8.93;;;17.40;99.90;;;;;;5027103;28;20312;-82
2022/10/13 11:59:21;;;;;;;19.42;8.77;;;17.40;99.90;;;;;;5026446;28;20091;-83
2022/10/13 12:01:51;;;;;;;13.63;8.32;;;17.40;99.90;;;;;;5027744;28;20025;-83
2022/10/13 12:04:20;;;;;;;15.45;8.65;;;17.20;99.90;;;;;;5026352;28;20532;-83
2022/10/13 12:06:59;;;;;;;13.73;7.75;;;17.10;99.90;;;;;;5027789;28;20026;-82
2022/10/13 12:09:26;;;;;;;17.45;8.40;;;16.90;99.90;;;;;;5026903;28;20030;-82
2022/10/13 12:12:00;;;;;;;18.88;8.68;;;16.90;99.90;;;;;;5027086;28;20025;-83
2022/10/13 12:14:38;;;;;;;16.20;7.85;;;16.70;99.90;;;;;;5027770;28;20026;-83
2022/10/13 12:17:19;;;;;;;16.95;8.00;;;16.70;99.90;;;;;;5026233;28;20037;-83
2022/10/13 12:19:44;;;;;;;17.42;8.38;;;16.70;99.90;;;;;;5030309;28;20049;-83
2022/10/13 12:22:11;;;;;;;19.58;9.02;;;16.60;99.90;;;;;;5029510;28;20037;-83
2022/10/13 12:24:36;;;;;;;23.63;9.18;;;16.50;99.90;;;;;;5032156;28;20025;-83
2022/10/13 12:27:28;;;;;;;18.83;8.18;;;16.60;99.90;;;;;;5031086;28;20405;-83
2022/10/13 12:29:54;;;;;;;14.65;8.52;;;16.50;99.90;;;;;;5030546;28;20017;-83
2022/10/13 12:32:32;;;;;;;13.63;7.88;;;16.60;99.90;;;;;;5027106;28;20021;-83
2022/10/13 12:35:16;;;;;;;15.30;7.80;;;16.70;99.90;;;;;;5030564;28;20501;-83
2022/10/13 12:37:42;;;;;;;15.70;7.90;;;16.80;99.90;;;;;;5033725;28;20423;-78
2022/10/13 12:40:12;;;;;;;16.13;7.85;;;16.80;99.90;;;;;;5016926;28;20064;-77
2022/10/13 12:42:38;;;;;;;14.60;8.00;;;16.90;99.90;;;;;;5038274;28;20033;-78
2022/10/13 12:45:04;;;;;;;16.77;7.82;;;16.90;99.90;;;;;;5032660;28;20482;-77
2022/10/13 12:47:59;;;;;;;13.65;7.68;;;17.00;99.90;;;;;;5024786;28;20069;-78
2022/10/13 12:50:28;;;;;;;12.88;7.47;;;17.10;99.90;;;;;;5031002;28;20474;-77